Time;durP1;ratioP1;P1;durP2;ratioP2;P2;SDS_P1;SDS_P2;PMS_P1;PMS_P2;Temp;Humidity;BMP_temperature;BMP_pressure;BME280_temperature;BME280_humidity;BME280_pressure;Samples;Min_cycle;Max_cycle;Signal;HPM_P1;HPM_P2
2022/05/16 00:02:00;;;;;;;3.50;3.20;;;;;;;;;;4937673;29;20479;-75
2022/05/16 00:04:26;;;;;;;3.30;3.00;;;;;;;;;;4942691;28;20451;-75
2022/05/16 00:06:53;;;;;;;4.40;3.20;;;;;;;;;;4939061;28;20462;-76
2022/05/16 00:09:21;;;;;;;3.20;2.90;;;;;;;;;;4962841;28;20448;-75
2022/05/16 00:11:47;;;;;;;6.43;3.50;;;;;;;;;;4958955;28;20946;-76
2022/05/16 00:14:14;;;;;;;3.17;2.97;;;;;;;;;;4973450;28;20513;-75
2022/05/16 00:16:40;;;;;;;3.87;3.10;;;;;;;;;;4974280;28;20438;-75
2022/05/16 00:19:07;;;;;;;3.27;2.83;;;;;;;;;;4940915;29;20456;-75
2022/05/16 00:21:34;;;;;;;3.33;3.07;;;;;;;;;;4942682;29;20535;-75
2022/05/16 00:24:01;;;;;;;4.20;3.20;;;;;;;;;;4953593;28;20446;-75
2022/05/16 00:26:29;;;;;;;5.37;3.10;;;;;;;;;;4937715;29;20809;-75
2022/05/16 00:28:55;;;;;;;3.53;3.23;;;;;;;;;;4951017;28;21095;-75
2022/05/16 00:31:22;;;;;;;3.40;3.17;;;;;;;;;;4949550;28;20447;-74
2022/05/16 00:33:48;;;;;;;5.17;3.70;;;;;;;;;;4946701;28;20439;-74
2022/05/16 00:36:15;;;;;;;4.03;3.20;;;;;;;;;;4952389;28;20479;-74
2022/05/16 00:38:41;;;;;;;3.53;3.23;;;;;;;;;;4958746;28;20488;-74
2022/05/16 00:41:08;;;;;;;3.93;3.10;;;;;;;;;;4965081;28;20447;-74
2022/05/16 00:43:52;;;;;;;4.53;2.80;;;;;;;;;;4969816;28;20475;-75
2022/05/16 00:46:19;;;;;;;3.43;3.00;;;;;;;;;;4961642;28;20465;-75
2022/05/16 00:48:46;;;;;;;3.33;3.03;;;;;;;;;;4966079;28;20927;-75
2022/05/16 00:51:33;;;;;;;4.00;3.37;;;;;;;;;;4956263;28;20435;-75
2022/05/16 00:54:02;;;;;;;3.43;3.10;;;;;;;;;;4913994;29;20500;-75
2022/05/16 00:56:30;;;;;;;4.53;2.87;;;;;;;;;;4911811;29;20556;-75
2022/05/16 00:58:58;;;;;;;4.10;3.10;;;;;;;;;;4915918;29;21114;-74
2022/05/16 01:06:58;;;;;;;5.93;3.67;;;;;;;;;;4885289;29;21055;-75
2022/05/16 01:09:25;;;;;;;4.13;3.73;;;;;;;;;;4896131;29;20465;-75
2022/05/16 01:11:51;;;;;;;4.23;3.83;;;;;;;;;;4904669;29;20445;-75
2022/05/16 01:14:36;;;;;;;3.67;3.37;;;;;;;;;;4930075;29;20438;-75
2022/05/16 01:17:04;;;;;;;3.00;2.80;;;;;;;;;;4935738;29;20474;-75
2022/05/16 01:19:31;;;;;;;3.00;2.80;;;;;;;;;;4935776;29;20448;-75
2022/05/16 01:21:59;;;;;;;2.73;2.50;;;;;;;;;;4941700;29;20475;-75
2022/05/16 01:24:28;;;;;;;3.00;2.70;;;;;;;;;;4933898;29;20535;-75
2022/05/16 01:26:54;;;;;;;3.47;2.97;;;;;;;;;;4933415;29;20452;-75
2022/05/16 01:29:21;;;;;;;4.90;3.03;;;;;;;;;;4936552;28;20460;-75
2022/05/16 01:31:47;;;;;;;3.00;2.70;;;;;;;;;;4933107;29;20482;-75
2022/05/16 01:34:14;;;;;;;4.47;3.17;;;;;;;;;;4946145;28;20452;-75
2022/05/16 01:36:40;;;;;;;3.40;2.90;;;;;;;;;;4918105;29;20563;-75
2022/05/16 01:39:07;;;;;;;3.87;3.37;;;;;;;;;;4936467;29;20932;-75
2022/05/16 01:41:35;;;;;;;3.93;3.27;;;;;;;;;;4932649;29;20545;-75
2022/05/16 01:44:02;;;;;;;4.03;3.17;;;;;;;;;;4950868;29;20471;-75
2022/05/16 01:46:29;;;;;;;3.87;3.47;;;;;;;;;;4932553;29;20518;-75
2022/05/16 01:48:57;;;;;;;3.40;3.20;;;;;;;;;;4934362;29;20453;-75
2022/05/16 01:51:23;;;;;;;4.77;3.70;;;;;;;;;;4932865;29;20539;-74
2022/05/16 01:53:50;;;;;;;3.03;2.77;;;;;;;;;;4942542;29;20451;-75
2022/05/16 01:56:17;;;;;;;4.27;3.97;;;;;;;;;;4921051;29;20456;-75
2022/05/16 01:58:45;;;;;;;4.13;3.83;;;;;;;;;;4933288;28;20837;-75
2022/05/16 02:01:12;;;;;;;8.03;4.80;;;;;;;;;;4975087;28;20442;-75
2022/05/16 02:03:38;;;;;;;5.23;4.73;;;;;;;;;;4974758;28;20469;-75
2022/05/16 02:06:05;;;;;;;4.17;3.77;;;;;;;;;;4951554;28;20513;-75
2022/05/16 02:08:31;;;;;;;4.57;4.10;;;;;;;;;;4938998;29;20459;-75
2022/05/16 02:10:58;;;;;;;4.03;3.73;;;;;;;;;;4957106;28;20543;-75
2022/05/16 02:13:24;;;;;;;6.00;3.87;;;;;;;;;;4941568;28;20445;-75
2022/05/16 02:15:52;;;;;;;4.30;4.00;;;;;;;;;;4972146;28;20446;-75
2022/05/16 02:18:19;;;;;;;6.93;4.10;;;;;;;;;;4962712;28;20455;-75
2022/05/16 02:20:45;;;;;;;4.90;3.53;;;;;;;;;;4937796;29;20483;-75
2022/05/16 02:25:57;;;;;;;4.37;3.97;;;;;;;;;;4954548;28;20446;-75
2022/05/16 02:28:23;;;;;;;3.43;3.23;;;;;;;;;;4941168;28;20552;-75
2022/05/16 02:30:54;;;;;;;4.13;3.73;;;;;;;;;;4955091;28;20486;-75
2022/05/16 02:33:20;;;;;;;8.03;3.90;;;;;;;;;;4963824;28;20790;-75
2022/05/16 02:35:47;;;;;;;4.40;3.70;;;;;;;;;;4972341;28;20435;-76
2022/05/16 02:38:18;;;;;;;5.30;4.30;;;;;;;;;;4931174;29;20468;-75
2022/05/16 02:40:45;;;;;;;3.90;3.60;;;;;;;;;;4952905;29;20446;-75
2022/05/16 02:43:11;;;;;;;4.20;3.30;;;;;;;;;;4952332;29;20563;-75
2022/05/16 02:45:38;;;;;;;7.43;3.60;;;;;;;;;;4936705;28;20475;-75
2022/05/16 02:48:06;;;;;;;4.17;3.70;;;;;;;;;;4951496;28;20566;-75
2022/05/16 02:50:33;;;;;;;5.17;3.33;;;;;;;;;;4945917;28;20448;-75
2022/05/16 02:53:00;;;;;;;3.93;3.53;;;;;;;;;;4940119;28;20438;-75
2022/05/16 02:55:26;;;;;;;3.87;3.20;;;;;;;;;;4949471;28;20454;-75
2022/05/16 02:57:53;;;;;;;4.83;3.57;;;;;;;;;;4954291;28;20459;-75
2022/05/16 03:00:20;;;;;;;7.20;4.00;;;;;;;;;;4952027;29;20571;-75
2022/05/16 03:02:46;;;;;;;3.93;3.50;;;;;;;;;;4945776;29;20830;-75
2022/05/16 03:05:14;;;;;;;3.20;3.00;;;;;;;;;;4952650;28;20518;-75
2022/05/16 03:07:41;;;;;;;4.60;3.50;;;;;;;;;;4951643;29;20973;-76
2022/05/16 03:10:08;;;;;;;5.37;3.80;;;;;;;;;;4942316;28;20494;-75
2022/05/16 03:12:35;;;;;;;4.33;3.93;;;;;;;;;;4948243;29;20447;-75
2022/05/16 03:15:01;;;;;;;5.13;3.37;;;;;;;;;;4929085;29;20467;-75
2022/05/16 03:17:28;;;;;;;3.90;3.50;;;;;;;;;;4936277;29;20451;-75
2022/05/16 03:19:54;;;;;;;5.03;4.30;;;;;;;;;;4939758;28;20576;-75
2022/05/16 03:22:22;;;;;;;5.97;4.07;;;;;;;;;;4923212;29;20475;-75
2022/05/16 03:24:48;;;;;;;4.57;4.17;;;;;;;;;;4954441;29;20479;-75
2022/05/16 03:27:15;;;;;;;3.70;3.40;;;;;;;;;;4954039;28;20459;-75
2022/05/16 03:29:42;;;;;;;6.07;4.60;;;;;;;;;;4926095;29;20466;-76
2022/05/16 03:32:08;;;;;;;4.93;3.70;;;;;;;;;;4945036;29;20478;-75
2022/05/16 03:34:35;;;;;;;3.83;3.53;;;;;;;;;;4954129;29;20915;-75
2022/05/16 03:37:01;;;;;;;4.17;3.80;;;;;;;;;;4937973;28;20554;-75
2022/05/16 03:42:14;;;;;;;3.80;3.50;;;;;;;;;;4955763;29;20447;-75
2022/05/16 03:44:41;;;;;;;4.13;3.67;;;;;;;;;;4954816;29;20488;-75
2022/05/16 03:47:07;;;;;;;4.77;3.30;;;;;;;;;;4944426;28;20562;-75
2022/05/16 03:49:34;;;;;;;3.70;3.40;;;;;;;;;;4948065;29;20443;-75
2022/05/16 03:52:02;;;;;;;3.50;3.20;;;;;;;;;;4955554;29;20443;-75
2022/05/16 03:54:32;;;;;;;4.20;3.30;;;;;;;;;;4950519;29;21033;-75
2022/05/16 03:56:58;;;;;;;6.90;3.50;;;;;;;;;;4950656;28;20532;-76
2022/05/16 03:59:25;;;;;;;3.83;3.53;;;;;;;;;;4935256;29;20468;-75
2022/05/16 04:01:52;;;;;;;4.37;3.80;;;;;;;;;;4940585;29;20474;-75
2022/05/16 04:04:19;;;;;;;6.30;4.10;;;;;;;;;;4932799;28;20545;-75
2022/05/16 04:06:46;;;;;;;3.70;3.40;;;;;;;;;;4937259;29;20877;-75
2022/05/16 04:09:14;;;;;;;4.87;3.47;;;;;;;;;;4949037;28;20494;-75
2022/05/16 04:11:42;;;;;;;3.87;3.57;;;;;;;;;;4940385;29;20467;-75
2022/05/16 04:14:08;;;;;;;4.13;3.70;;;;;;;;;;4954357;29;20448;-75
2022/05/16 04:16:36;;;;;;;4.00;3.70;;;;;;;;;;4955424;29;20440;-75
2022/05/16 04:19:04;;;;;;;3.63;3.23;;;;;;;;;;4943293;28;20460;-75
2022/05/16 04:21:30;;;;;;;3.80;3.47;;;;;;;;;;4948418;29;20526;-75
2022/05/16 04:23:57;;;;;;;3.40;3.10;;;;;;;;;;4947722;29;20460;-76
2022/05/16 04:26:24;;;;;;;4.30;3.83;;;;;;;;;;4954226;29;20439;-76
2022/05/16 04:28:52;;;;;;;4.00;3.60;;;;;;;;;;4938498;28;20451;-76
2022/05/16 04:31:19;;;;;;;4.13;3.73;;;;;;;;;;4948726;29;20570;-76
2022/05/16 04:33:45;;;;;;;8.13;3.80;;;;;;;;;;4945563;29;20444;-76
2022/05/16 04:36:12;;;;;;;7.13;4.73;;;;;;;;;;4969215;28;20444;-76
2022/05/16 04:38:39;;;;;;;4.20;3.80;;;;;;;;;;4951956;28;20938;-76
2022/05/16 04:43:50;;;;;;;4.33;3.60;;;;;;;;;;4936571;29;20526;-76
2022/05/16 04:46:18;;;;;;;4.87;4.50;;;;;;;;;;4948014;28;20534;-76
2022/05/16 04:48:44;;;;;;;4.60;4.20;;;;;;;;;;4927671;29;20443;-76
2022/05/16 04:51:11;;;;;;;6.07;4.40;;;;;;;;;;4953476;29;20447;-76
2022/05/16 04:53:38;;;;;;;4.37;3.97;;;;;;;;;;4952590;29;20462;-76
2022/05/16 04:56:05;;;;;;;4.30;3.90;;;;;;;;;;4943896;28;21013;-76
2022/05/16 04:58:33;;;;;;;5.33;4.37;;;;;;;;;;4944649;29;20476;-76
2022/05/16 05:00:59;;;;;;;7.23;4.60;;;;;;;;;;4946878;29;20447;-76
2022/05/16 05:03:27;;;;;;;6.20;4.67;;;;;;;;;;4931214;29;20472;-76
2022/05/16 05:05:54;;;;;;;5.30;4.90;;;;;;;;;;4954188;29;20983;-76
2022/05/16 05:08:20;;;;;;;4.40;4.00;;;;;;;;;;4954973;29;20432;-76
2022/05/16 05:16:24;;;;;;;6.47;5.83;;;;;;;;;;4918500;29;20435;-76
2022/05/16 05:18:52;;;;;;;7.70;5.43;;;;;;;;;;4951735;28;20881;-76
2022/05/16 05:21:19;;;;;;;7.97;6.07;;;;;;;;;;4953174;29;20530;-76
2022/05/16 05:23:45;;;;;;;5.40;4.90;;;;;;;;;;4948974;29;20459;-76
2022/05/16 05:26:12;;;;;;;6.73;5.33;;;;;;;;;;4953681;29;20450;-76
2022/05/16 05:28:39;;;;;;;5.33;4.83;;;;;;;;;;4932130;29;20452;-76
2022/05/16 05:31:10;;;;;;;6.57;5.70;;;;;;;;;;4941174;29;20483;-76
2022/05/16 05:33:36;;;;;;;5.07;4.57;;;;;;;;;;4952979;28;20455;-76
2022/05/16 05:36:04;;;;;;;5.20;4.70;;;;;;;;;;4952817;29;20518;-76
2022/05/16 05:38:31;;;;;;;6.47;5.10;;;;;;;;;;4950185;28;20473;-75
2022/05/16 05:41:01;;;;;;;5.67;4.90;;;;;;;;;;4944212;28;20432;-75
2022/05/16 05:43:27;;;;;;;4.77;4.27;;;;;;;;;;4939702;29;20475;-75
2022/05/16 05:45:54;;;;;;;8.30;4.60;;;;;;;;;;4952870;29;20458;-75
2022/05/16 05:48:20;;;;;;;5.50;5.00;;;;;;;;;;4932953;29;20440;-75
2022/05/16 05:50:47;;;;;;;7.53;4.70;;;;;;;;;;4925847;29;20454;-75
2022/05/16 05:53:14;;;;;;;4.93;3.87;;;;;;;;;;4925645;29;20448;-76
2022/05/16 05:55:41;;;;;;;4.70;4.30;;;;;;;;;;4945275;29;20447;-76
2022/05/16 05:58:08;;;;;;;4.83;4.43;;;;;;;;;;4933045;29;20489;-75
2022/05/16 06:00:34;;;;;;;4.97;4.43;;;;;;;;;;4967759;28;20495;-75
2022/05/16 06:03:01;;;;;;;4.43;4.03;;;;;;;;;;4959820;28;20479;-75
2022/05/16 06:05:28;;;;;;;5.90;4.40;;;;;;;;;;4951730;28;20514;-75
2022/05/16 06:07:54;;;;;;;4.50;4.10;;;;;;;;;;4971555;28;20956;-75
2022/05/16 06:10:22;;;;;;;4.60;4.20;;;;;;;;;;4963019;28;20817;-75
2022/05/16 06:12:48;;;;;;;5.33;4.47;;;;;;;;;;4961989;28;20469;-75
2022/05/16 06:15:15;;;;;;;5.90;5.23;;;;;;;;;;4954353;28;20489;-75
2022/05/16 06:17:43;;;;;;;6.03;5.47;;;;;;;;;;4950951;29;20542;-75
2022/05/16 06:20:11;;;;;;;5.10;4.70;;;;;;;;;;4946861;28;20474;-75
2022/05/16 06:22:38;;;;;;;6.47;4.90;;;;;;;;;;4948113;28;20543;-75
2022/05/16 06:27:51;;;;;;;6.10;5.50;;;;;;;;;;4969012;28;20465;-75
2022/05/16 06:30:19;;;;;;;4.73;4.33;;;;;;;;;;4965183;28;20454;-75
2022/05/16 06:32:45;;;;;;;4.57;4.17;;;;;;;;;;4954105;28;20467;-75
2022/05/16 06:35:12;;;;;;;4.77;4.37;;;;;;;;;;4970310;28;21005;-75
2022/05/16 06:37:39;;;;;;;5.37;4.60;;;;;;;;;;4961771;28;20566;-75
2022/05/16 06:40:06;;;;;;;6.23;5.37;;;;;;;;;;4952868;29;20466;-75
2022/05/16 06:42:32;;;;;;;5.33;4.83;;;;;;;;;;4942559;28;20521;-75
2022/05/16 06:45:00;;;;;;;5.73;4.87;;;;;;;;;;4969751;28;20474;-75
2022/05/16 06:47:27;;;;;;;5.27;4.80;;;;;;;;;;4967637;28;20904;-75
2022/05/16 06:49:53;;;;;;;5.10;4.60;;;;;;;;;;4948485;28;20446;-76
2022/05/16 06:52:20;;;;;;;5.00;4.50;;;;;;;;;;4954035;28;20549;-75
2022/05/16 06:54:46;;;;;;;5.20;4.70;;;;;;;;;;4970873;28;20964;-76
2022/05/16 06:57:13;;;;;;;5.63;5.13;;;;;;;;;;4945788;28;20440;-77
2022/05/16 06:59:39;;;;;;;5.30;4.80;;;;;;;;;;4972121;28;20609;-76
2022/05/16 07:02:07;;;;;;;7.47;5.40;;;;;;;;;;4972379;28;20431;-76
2022/05/16 07:04:36;;;;;;;5.00;4.60;;;;;;;;;;4964575;28;20479;-76
2022/05/16 07:07:04;;;;;;;6.93;5.43;;;;;;;;;;4968290;28;20497;-76
2022/05/16 07:09:30;;;;;;;8.43;5.03;;;;;;;;;;4975092;28;20513;-75
2022/05/16 07:11:57;;;;;;;5.13;4.30;;;;;;;;;;4945079;28;20493;-76
2022/05/16 07:14:24;;;;;;;5.67;4.60;;;;;;;;;;4954032;28;21012;-76
2022/05/16 07:16:51;;;;;;;7.80;4.93;;;;;;;;;;4963834;28;20470;-76
2022/05/16 07:19:19;;;;;;;6.07;4.57;;;;;;;;;;4952623;28;21001;-76
2022/05/16 07:21:47;;;;;;;5.77;5.23;;;;;;;;;;4969275;28;20525;-76
2022/05/16 07:24:14;;;;;;;6.83;5.03;;;;;;;;;;4965453;28;20568;-76
2022/05/16 07:29:24;;;;;;;4.90;4.50;;;;;;;;;;4945743;28;20462;-76
2022/05/16 07:31:52;;;;;;;6.27;4.57;;;;;;;;;;4963984;28;20458;-75
2022/05/16 07:34:20;;;;;;;6.47;4.73;;;;;;;;;;4947348;28;20811;-76
2022/05/16 07:36:47;;;;;;;5.90;4.93;;;;;;;;;;4965302;28;20545;-76
2022/05/16 07:39:13;;;;;;;5.37;4.80;;;;;;;;;;4955213;28;20953;-76
2022/05/16 07:41:40;;;;;;;5.83;5.30;;;;;;;;;;4961748;28;20446;-76
2022/05/16 07:44:06;;;;;;;6.30;5.20;;;;;;;;;;4975179;28;20477;-76
2022/05/16 07:46:33;;;;;;;6.63;5.37;;;;;;;;;;4949514;28;20449;-75
2022/05/16 07:48:59;;;;;;;5.97;4.90;;;;;;;;;;4955966;28;20553;-76
2022/05/16 07:51:27;;;;;;;5.00;4.50;;;;;;;;;;4971010;28;21204;-76
2022/05/16 07:53:55;;;;;;;6.40;4.97;;;;;;;;;;4938515;29;20501;-75
2022/05/16 07:56:22;;;;;;;5.30;4.90;;;;;;;;;;4949202;28;20435;-76
2022/05/16 07:58:48;;;;;;;4.97;4.57;;;;;;;;;;4945733;28;21109;-76
2022/05/16 08:01:18;;;;;;;6.53;4.90;;;;;;;;;;4954826;29;20494;-75
2022/05/16 08:03:50;;;;;;;6.70;4.70;;;;;;;;;;4937795;29;20545;-76
2022/05/16 08:06:19;;;;;;;4.80;4.40;;;;;;;;;;4970609;28;20442;-76
2022/05/16 08:11:31;;;;;;;4.87;4.47;;;;;;;;;;4955758;28;20493;-76
2022/05/16 08:13:58;;;;;;;4.80;4.40;;;;;;;;;;4955315;28;20984;-77
2022/05/16 08:16:24;;;;;;;7.33;4.67;;;;;;;;;;4952758;28;20474;-76
2022/05/16 08:18:51;;;;;;;5.30;4.80;;;;;;;;;;4968303;28;20445;-76
2022/05/16 08:21:17;;;;;;;8.13;5.00;;;;;;;;;;4967241;28;20875;-76
2022/05/16 08:23:43;;;;;;;5.80;5.30;;;;;;;;;;4965625;28;20458;-76
2022/05/16 08:26:11;;;;;;;5.50;5.00;;;;;;;;;;4973395;28;20477;-76
2022/05/16 08:28:39;;;;;;;6.97;6.27;;;;;;;;;;4949813;28;20520;-76
2022/05/16 08:31:05;;;;;;;5.60;5.10;;;;;;;;;;4955111;28;20458;-76
2022/05/16 08:33:33;;;;;;;6.23;5.57;;;;;;;;;;4957034;28;20431;-76
2022/05/16 08:41:30;;;;;;;6.60;6.07;;;;;;;;;;4953524;29;20428;-77
2022/05/16 08:44:01;;;;;;;6.60;5.90;;;;;;;;;;4949740;28;20458;-76
2022/05/16 08:46:33;;;;;;;7.73;5.10;;;;;;;;;;4949745;28;20466;-75
2022/05/16 08:49:06;;;;;;;8.87;5.93;;;;;;;;;;4955400;28;20458;-77
2022/05/16 08:51:33;;;;;;;5.60;5.10;;;;;;;;;;4956027;28;20445;-77
2022/05/16 08:54:04;;;;;;;6.07;5.47;;;;;;;;;;4955123;28;20463;-78
2022/05/16 08:56:34;;;;;;;8.83;6.60;;;;;;;;;;4973533;28;20442;-77
2022/05/16 08:59:02;;;;;;;6.77;6.10;;;;;;;;;;4952691;29;20511;-77
2022/05/16 09:01:32;;;;;;;6.63;5.93;;;;;;;;;;4972670;28;20462;-77
2022/05/16 09:04:01;;;;;;;12.43;6.10;;;;;;;;;;4971787;28;20574;-78
2022/05/16 09:06:32;;;;;;;7.20;5.90;;;;;;;;;;4954367;28;20482;-76
2022/05/16 09:09:02;;;;;;;7.63;5.60;;;;;;;;;;4971901;28;20454;-77
2022/05/16 09:11:32;;;;;;;7.10;6.17;;;;;;;;;;4973143;28;20418;-77
2022/05/16 09:14:04;;;;;;;6.67;5.77;;;;;;;;;;4955724;28;20462;-76
2022/05/16 09:16:38;;;;;;;7.33;5.93;;;;;;;;;;4955910;28;20450;-76
2022/05/16 09:19:10;;;;;;;6.47;5.80;;;;;;;;;;4948326;28;20465;-76
2022/05/16 09:21:41;;;;;;;7.10;6.00;;;;;;;;;;4973468;28;20471;-77
2022/05/16 09:24:11;;;;;;;7.20;5.70;;;;;;;;;;4954310;28;20466;-77
2022/05/16 09:26:44;;;;;;;6.77;6.17;;;;;;;;;;4947094;28;20533;-76
2022/05/16 09:29:18;;;;;;;8.07;6.33;;;;;;;;;;4937401;29;20455;-77
2022/05/16 09:31:45;;;;;;;8.70;5.60;;;;;;;;;;4937061;29;20442;-77
2022/05/16 09:34:12;;;;;;;6.83;6.20;;;;;;;;;;4971409;28;20516;-76
2022/05/16 09:36:42;;;;;;;8.90;5.60;;;;;;;;;;4954561;28;20497;-76
2022/05/16 09:39:10;;;;;;;7.93;5.83;;;;;;;;;;4954535;28;20545;-76
2022/05/16 09:41:40;;;;;;;7.17;6.47;;;;;;;;;;4940227;28;20442;-76
2022/05/16 09:44:10;;;;;;;6.93;6.20;;;;;;;;;;4970076;28;20450;-77
2022/05/16 09:46:39;;;;;;;7.90;5.90;;;;;;;;;;4953840;28;20492;-76
2022/05/16 09:49:08;;;;;;;6.33;5.73;;;;;;;;;;4971006;28;20469;-77
2022/05/16 09:51:42;;;;;;;6.03;5.43;;;;;;;;;;4972167;28;20438;-77
2022/05/16 09:54:14;;;;;;;6.57;5.80;;;;;;;;;;4969638;28;20464;-77
2022/05/16 09:56:52;;;;;;;6.27;5.77;;;;;;;;;;4954553;28;20425;-77
2022/05/16 09:59:33;;;;;;;6.20;5.60;;;;;;;;;;4945434;28;20488;-77
2022/05/16 10:02:07;;;;;;;6.27;5.67;;;;;;;;;;4953391;28;20450;-78
2022/05/16 10:04:39;;;;;;;6.73;6.00;;;;;;;;;;4954080;28;20486;-77
2022/05/16 10:07:06;;;;;;;9.13;6.27;;;;;;;;;;4971591;28;20830;-76
2022/05/16 10:09:36;;;;;;;5.83;5.23;;;;;;;;;;4970752;28;20961;-77
2022/05/16 10:12:03;;;;;;;7.73;5.40;;;;;;;;;;4970545;28;20505;-76
2022/05/16 10:14:30;;;;;;;6.00;5.43;;;;;;;;;;4970674;28;20456;-77
2022/05/16 10:16:57;;;;;;;6.93;4.90;;;;;;;;;;4966557;28;20486;-77
2022/05/16 10:19:27;;;;;;;5.97;5.43;;;;;;;;;;4947980;28;20537;-76
2022/05/16 10:21:55;;;;;;;6.13;5.53;;;;;;;;;;4953490;28;20479;-75
2022/05/16 10:24:22;;;;;;;8.83;6.50;;;;;;;;;;4969119;28;20494;-76
2022/05/16 10:26:50;;;;;;;6.10;5.20;;;;;;;;;;4969510;28;20454;-77
2022/05/16 10:29:20;;;;;;;8.20;5.90;;;;;;;;;;4970673;28;20442;-77
2022/05/16 10:34:36;;;;;;;6.57;5.70;;;;;;;;;;4951502;28;20546;-77
2022/05/16 10:37:03;;;;;;;7.37;5.80;;;;;;;;;;4968029;28;20450;-77
2022/05/16 10:39:31;;;;;;;6.83;6.13;;;;;;;;;;4944323;28;20439;-77
2022/05/16 10:41:58;;;;;;;8.43;6.30;;;;;;;;;;4953725;28;20442;-76
2022/05/16 10:44:29;;;;;;;6.67;5.97;;;;;;;;;;4953139;28;20489;-76
2022/05/16 10:47:01;;;;;;;7.57;6.17;;;;;;;;;;4949144;28;20477;-77
2022/05/16 10:49:30;;;;;;;7.47;6.10;;;;;;;;;;4952526;28;20942;-76
2022/05/16 10:52:01;;;;;;;6.00;5.40;;;;;;;;;;4936923;28;20461;-76
2022/05/16 10:54:29;;;;;;;7.73;5.90;;;;;;;;;;4945686;28;20450;-77
2022/05/16 10:57:13;;;;;;;7.30;4.63;;;;;;;;;;4971699;28;20461;-76
2022/05/16 10:59:53;;;;;;;6.03;4.80;;;;;;;;;;4971957;28;20470;-76
2022/05/16 11:02:25;;;;;;;5.10;4.60;;;;;;;;;;4953633;28;20450;-76
2022/05/16 11:05:01;;;;;;;7.97;4.63;;;;;;;;;;4938579;28;20479;-76
2022/05/16 11:07:32;;;;;;;6.33;4.40;;;;;;;;;;4970136;28;20956;-77
2022/05/16 11:10:02;;;;;;;5.03;3.97;;;;;;;;;;4972527;28;20450;-77
2022/05/16 11:12:31;;;;;;;5.47;4.40;;;;;;;;;;4952925;28;20481;-77
2022/05/16 11:15:01;;;;;;;4.93;3.80;;;;;;;;;;4969263;28;20484;-77
2022/05/16 11:17:31;;;;;;;4.40;3.70;;;;;;;;;;4954704;28;20937;-77
2022/05/16 11:20:04;;;;;;;5.63;3.70;;;;;;;;;;4956714;28;20481;-77
2022/05/16 11:22:36;;;;;;;4.10;3.70;;;;;;;;;;4955405;28;20481;-77
2022/05/16 11:25:06;;;;;;;5.90;4.00;;;;;;;;;;4956552;28;20537;-77
2022/05/16 11:27:35;;;;;;;6.13;4.27;;;;;;;;;;4957746;28;20449;-76
2022/05/16 11:30:10;;;;;;;4.07;3.73;;;;;;;;;;4974249;28;20441;-76
2022/05/16 11:32:42;;;;;;;6.40;3.70;;;;;;;;;;4956440;28;20453;-76
2022/05/16 11:35:12;;;;;;;5.80;3.57;;;;;;;;;;4973001;28;20457;-77
2022/05/16 11:37:48;;;;;;;4.50;2.80;;;;;;;;;;4957269;28;20971;-77
2022/05/16 11:40:19;;;;;;;3.00;2.67;;;;;;;;;;4957954;28;20453;-77
2022/05/16 11:42:50;;;;;;;4.57;2.33;;;;;;;;;;4955661;28;20462;-77
2022/05/16 11:45:25;;;;;;;4.60;1.93;;;;;;;;;;4955834;28;20480;-77
2022/05/16 11:47:55;;;;;;;4.43;1.90;;;;;;;;;;4973081;28;20547;-77
2022/05/16 11:50:24;;;;;;;2.87;1.80;;;;;;;;;;4957730;28;20453;-77
2022/05/16 11:52:55;;;;;;;3.63;1.90;;;;;;;;;;4954915;28;20502;-77
2022/05/16 12:00:54;;;;;;;5.23;2.10;;;;;;;;;;4955973;28;20469;-77
2022/05/16 12:03:21;;;;;;;3.77;2.80;;;;;;;;;;4974047;28;20948;-77
2022/05/16 12:05:49;;;;;;;2.70;2.17;;;;;;;;;;4973573;28;20902;-77
2022/05/16 12:08:32;;;;;;;4.67;1.70;;;;;;;;;;4974431;28;20465;-77
2022/05/16 12:10:59;;;;;;;2.63;1.70;;;;;;;;;;4972786;28;20853;-77
2022/05/16 12:13:28;;;;;;;3.30;1.60;;;;;;;;;;4954320;28;20960;-78
2022/05/16 12:16:15;;;;;;;2.57;1.97;;;;;;;;;;4951661;28;20509;-77
2022/05/16 12:18:43;;;;;;;4.07;1.60;;;;;;;;;;4952472;28;20465;-77
2022/05/16 12:21:12;;;;;;;4.27;1.80;;;;;;;;;;4970446;28;20457;-76
2022/05/16 12:23:57;;;;;;;3.20;2.00;;;;;;;;;;4955270;28;20949;-77
2022/05/16 12:26:42;;;;;;;3.47;1.90;;;;;;;;;;4952718;28;20993;-77
2022/05/16 12:29:19;;;;;;;4.00;2.37;;;;;;;;;;4957466;28;20454;-77
2022/05/16 12:31:50;;;;;;;3.00;2.30;;;;;;;;;;4965813;28;20537;-77
2022/05/16 12:34:37;;;;;;;3.93;2.17;;;;;;;;;;4953587;28;20457;-77
2022/05/16 12:37:06;;;;;;;3.40;2.07;;;;;;;;;;4953828;28;20818;-75
2022/05/16 12:39:38;;;;;;;3.13;2.40;;;;;;;;;;4950450;28;20562;-76
2022/05/16 12:42:11;;;;;;;3.20;2.03;;;;;;;;;;4961907;28;20421;-76
2022/05/16 12:44:44;;;;;;;3.10;2.30;;;;;;;;;;4935752;28;20461;-76
2022/05/16 12:47:32;;;;;;;2.53;1.77;;;;;;;;;;4968228;28;20538;-76
2022/05/16 12:50:07;;;;;;;5.37;2.17;;;;;;;;;;4972130;28;20446;-76
2022/05/16 12:52:47;;;;;;;2.63;2.13;;;;;;;;;;4971939;28;20676;-75
2022/05/16 12:55:28;;;;;;;3.20;2.30;;;;;;;;;;4954724;28;20520;-75
2022/05/16 12:58:00;;;;;;;3.47;1.93;;;;;;;;;;4973081;28;20446;-75
2022/05/16 13:00:32;;;;;;;5.50;2.40;;;;;;;;;;4968101;28;20937;-74
2022/05/16 13:03:18;;;;;;;5.50;2.23;;;;;;;;;;4951425;28;20541;-75
2022/05/16 13:05:46;;;;;;;3.90;2.73;;;;;;;;;;4954637;28;20765;-74
2022/05/16 13:08:19;;;;;;;4.60;2.33;;;;;;;;;;4958809;28;20474;-74
2022/05/16 13:10:49;;;;;;;7.00;2.40;;;;;;;;;;4954279;28;20548;-74
2022/05/16 13:13:21;;;;;;;5.27;3.00;;;;;;;;;;4972076;28;20803;-76
2022/05/16 13:15:52;;;;;;;4.10;1.97;;;;;;;;;;4946363;28;20438;-75
2022/05/16 13:18:22;;;;;;;3.37;1.73;;;;;;;;;;4971926;28;20462;-75
2022/05/16 13:20:51;;;;;;;3.73;2.20;;;;;;;;;;4955891;28;20446;-76
2022/05/16 13:23:17;;;;;;;3.20;2.27;;;;;;;;;;4954734;28;20442;-75
2022/05/16 13:31:13;;;;;;;4.43;2.17;;;;;;;;;;4939236;28;20497;-75
2022/05/16 13:33:41;;;;;;;4.60;2.10;;;;;;;;;;4959685;28;20469;-75
2022/05/16 13:36:15;;;;;;;6.30;3.00;;;;;;;;;;4966778;28;20473;-75
2022/05/16 13:38:42;;;;;;;3.33;2.60;;;;;;;;;;4967721;28;20434;-76
2022/05/16 13:41:08;;;;;;;5.90;2.27;;;;;;;;;;4944956;28;20462;-75
2022/05/16 13:43:35;;;;;;;5.13;2.70;;;;;;;;;;4970029;28;20462;-75
2022/05/16 13:46:03;;;;;;;3.00;2.63;;;;;;;;;;4960236;28;20805;-74
2022/05/16 13:48:31;;;;;;;5.63;3.53;;;;;;;;;;4971456;28;20792;-77
2022/05/16 13:50:58;;;;;;;7.70;2.90;;;;;;;;;;4954387;28;20474;-75
2022/05/16 13:53:26;;;;;;;3.20;2.57;;;;;;;;;;4970564;28;20454;-74
2022/05/16 13:55:53;;;;;;;3.33;2.97;;;;;;;;;;4968642;28;20791;-75
2022/05/16 13:58:20;;;;;;;3.87;3.40;;;;;;;;;;4971999;28;20525;-74
2022/05/16 14:00:47;;;;;;;6.00;3.77;;;;;;;;;;4954260;28;20502;-74
2022/05/16 14:03:35;;;;;;;3.77;2.93;;;;;;;;;;4953073;28;20454;-75
2022/05/16 14:06:03;;;;;;;4.07;3.67;;;;;;;;;;4959177;28;20561;-75
2022/05/16 14:08:34;;;;;;;6.03;4.10;;;;;;;;;;4951553;28;20482;-74
2022/05/16 14:11:01;;;;;;;4.70;4.10;;;;;;;;;;4968904;28;20517;-76
2022/05/16 14:13:29;;;;;;;5.90;4.00;;;;;;;;;;4953869;28;20445;-76
2022/05/16 14:15:56;;;;;;;4.90;4.10;;;;;;;;;;4954754;28;20430;-76
2022/05/16 14:18:29;;;;;;;5.00;4.37;;;;;;;;;;4971021;28;20513;-76
2022/05/16 14:20:57;;;;;;;5.73;4.60;;;;;;;;;;4952330;28;20949;-76
2022/05/16 14:23:34;;;;;;;4.07;3.60;;;;;;;;;;4971011;28;20493;-76
2022/05/16 14:26:12;;;;;;;5.30;4.10;;;;;;;;;;4962214;28;20470;-75
2022/05/16 14:28:45;;;;;;;4.80;4.00;;;;;;;;;;4970604;28;20450;-76
2022/05/16 14:31:18;;;;;;;4.70;3.93;;;;;;;;;;4948003;28;20811;-76
2022/05/16 14:33:51;;;;;;;4.20;3.73;;;;;;;;;;4949606;28;20561;-76
2022/05/16 14:36:23;;;;;;;6.77;4.03;;;;;;;;;;4970765;28;20462;-75
2022/05/16 14:38:52;;;;;;;7.13;3.97;;;;;;;;;;4971600;28;20489;-76
2022/05/16 14:41:21;;;;;;;4.57;3.40;;;;;;;;;;4954370;28;20441;-76
2022/05/16 14:43:54;;;;;;;5.03;3.70;;;;;;;;;;4971291;28;20462;-76
2022/05/16 14:49:05;;;;;;;4.60;3.40;;;;;;;;;;4958032;28;20813;-76
2022/05/16 14:51:33;;;;;;;5.40;3.70;;;;;;;;;;4976218;28;20524;-76
2022/05/16 14:54:01;;;;;;;5.30;3.93;;;;;;;;;;4969559;28;20948;-76
2022/05/16 14:56:30;;;;;;;5.23;3.63;;;;;;;;;;4957745;28;21068;-75
2022/05/16 14:58:56;;;;;;;3.17;2.87;;;;;;;;;;4951138;28;20593;-75
2022/05/16 15:04:07;;;;;;;6.10;3.87;;;;;;;;;;4957286;28;20453;-76
2022/05/16 15:06:35;;;;;;;6.03;3.70;;;;;;;;;;4974273;28;20561;-75
2022/05/16 15:09:04;;;;;;;3.80;3.23;;;;;;;;;;4955581;28;20958;-76
2022/05/16 15:11:34;;;;;;;3.80;3.37;;;;;;;;;;4963951;28;20486;-75
2022/05/16 15:14:01;;;;;;;4.53;3.53;;;;;;;;;;4974920;28;20489;-75
2022/05/16 15:16:28;;;;;;;6.23;4.03;;;;;;;;;;4972347;28;20446;-76
2022/05/16 15:18:54;;;;;;;4.70;3.30;;;;;;;;;;4957818;28;20456;-76
2022/05/16 15:21:23;;;;;;;4.97;3.57;;;;;;;;;;4975423;28;20807;-76
2022/05/16 15:23:49;;;;;;;6.33;3.43;;;;;;;;;;4972347;28;20469;-76
2022/05/16 15:26:17;;;;;;;5.60;3.90;;;;;;;;;;4960599;28;20991;-75
2022/05/16 15:28:44;;;;;;;5.87;3.60;;;;;;;;;;4943829;28;20481;-75
2022/05/16 15:31:11;;;;;;;3.77;3.20;;;;;;;;;;4972961;28;20863;-76
2022/05/16 15:33:38;;;;;;;4.33;3.63;;;;;;;;;;4972248;28;20556;-75
2022/05/16 15:36:05;;;;;;;6.90;3.30;;;;;;;;;;4984902;28;20501;-76
2022/05/16 15:38:32;;;;;;;5.70;3.90;;;;;;;;;;4971369;28;20837;-76
2022/05/16 15:40:59;;;;;;;5.30;3.87;;;;;;;;;;4958478;28;20473;-76
2022/05/16 15:43:28;;;;;;;4.33;3.43;;;;;;;;;;4972887;28;20446;-76
2022/05/16 15:45:57;;;;;;;5.20;3.33;;;;;;;;;;4957173;28;20538;-76